createdAt,value
2019-01-29T00:01:22.693Z,0.90
2019-01-29T00:03:51.425Z,0.80
2019-01-29T00:06:19.832Z,2.25
2019-01-29T00:08:48.696Z,0.88
2019-01-29T00:11:17.476Z,0.95
2019-01-29T00:13:45.883Z,1.35
2019-01-29T00:16:14.962Z,0.88
2019-01-29T00:18:43.902Z,1.02
2019-01-29T00:21:14.005Z,1.15
2019-01-29T00:23:42.872Z,0.98
2019-01-29T00:26:11.313Z,0.80
2019-01-29T00:28:40.237Z,1.00
2019-01-29T00:31:09.077Z,1.02
2019-01-29T00:33:38.025Z,0.95
2019-01-29T00:36:06.724Z,1.45
2019-01-29T00:38:35.460Z,1.00
2019-01-29T00:41:04.298Z,1.30
2019-01-29T00:43:33.595Z,1.30
2019-01-29T00:46:02.412Z,1.35
2019-01-29T00:48:30.805Z,1.22
2019-01-29T00:50:59.687Z,1.92
2019-01-29T00:53:28.599Z,1.32
2019-01-29T00:55:57.590Z,1.10
2019-01-29T00:58:26.326Z,1.75
2019-01-29T01:00:55.307Z,1.30
2019-01-29T01:03:24.146Z,1.27
2019-01-29T01:05:53.174Z,1.80
2019-01-29T01:08:22.299Z,1.40
2019-01-29T01:10:51.811Z,1.55
2019-01-29T01:13:20.563Z,2.27
2019-01-29T01:15:49.494Z,1.70
2019-01-29T01:18:18.685Z,2.15
2019-01-29T01:20:47.716Z,3.50
2019-01-29T01:23:16.693Z,3.35
2019-01-29T01:25:45.335Z,3.05
2019-01-29T01:28:14.469Z,3.67
2019-01-29T01:30:43.218Z,2.75
2019-01-29T01:33:12.699Z,3.58
2019-01-29T01:35:41.497Z,6.22
2019-01-29T01:38:10.387Z,4.83
2019-01-29T01:40:39.308Z,3.87
2019-01-29T01:43:08.264Z,5.47
2019-01-29T01:45:37.237Z,6.78
2019-01-29T01:48:06.285Z,3.62
2019-01-29T01:50:35.211Z,5.62
2019-01-29T01:53:04.138Z,4.55
2019-01-29T01:55:32.751Z,4.03
2019-01-29T01:58:01.723Z,5.08
2019-01-29T02:00:30.548Z,3.77
2019-01-29T02:02:59.419Z,11.63
2019-01-29T02:05:28.323Z,4.58
2019-01-29T02:07:57.602Z,7.62
2019-01-29T02:10:28.838Z,4.95
2019-01-29T02:12:57.677Z,4.30
2019-01-29T02:15:26.139Z,5.00
2019-01-29T02:17:55.203Z,4.30
2019-01-29T02:20:26.161Z,4.47
2019-01-29T02:22:55.002Z,5.17
2019-01-29T02:25:23.817Z,6.58
2019-01-29T02:27:52.728Z,8.35
2019-01-29T02:30:22.072Z,8.63
2019-01-29T02:32:50.588Z,4.62
2019-01-29T02:35:19.167Z,4.83
2019-01-29T02:37:47.678Z,3.25
2019-01-29T02:40:19.096Z,6.90
2019-01-29T02:42:47.996Z,3.77
2019-01-29T02:45:17.089Z,3.85
2019-01-29T02:47:46.111Z,3.77
2019-01-29T02:50:14.776Z,3.27
2019-01-29T02:52:43.788Z,5.10
2019-01-29T02:55:13.159Z,4.85
2019-01-29T02:57:42.195Z,5.25
2019-01-29T03:00:13.179Z,5.83
2019-01-29T03:02:42.090Z,4.53
2019-01-29T03:05:11.299Z,9.05
2019-01-29T03:07:40.172Z,5.97
2019-01-29T03:10:11.744Z,4.10
2019-01-29T03:12:40.598Z,8.15
2019-01-29T03:15:12.634Z,3.80
2019-01-29T03:17:41.671Z,3.70
2019-01-29T03:20:10.976Z,10.32
2019-01-29T03:22:39.391Z,4.28
2019-01-29T03:25:10.504Z,5.00
2019-01-29T03:27:39.191Z,6.25
2019-01-29T03:30:10.041Z,5.00
2019-01-29T03:32:38.995Z,5.87
2019-01-29T03:35:08.009Z,3.42
2019-01-29T03:37:36.717Z,4.85
2019-01-29T03:40:06.906Z,3.62
2019-01-29T03:42:36.263Z,8.78
2019-01-29T03:45:05.956Z,6.70
2019-01-29T03:47:36.051Z,5.12
2019-01-29T03:50:05.990Z,7.75
2019-01-29T03:52:35.051Z,4.08
2019-01-29T03:55:03.917Z,13.28
2019-01-29T03:57:32.791Z,4.55
2019-01-29T04:00:02.790Z,5.47
2019-01-29T04:02:31.716Z,12.93
2019-01-29T04:05:00.608Z,4.20
2019-01-29T04:07:30.052Z,6.45
2019-01-29T04:09:58.901Z,4.53
2019-01-29T04:12:28.765Z,3.60
2019-01-29T04:14:57.585Z,6.47
2019-01-29T04:17:26.428Z,5.53
2019-01-29T04:19:55.454Z,6.10
2019-01-29T04:22:25.286Z,13.98
2019-01-29T04:24:54.056Z,5.30
2019-01-29T04:27:22.969Z,4.72
2019-01-29T04:29:51.382Z,10.25
2019-01-29T04:32:20.387Z,13.35
2019-01-29T04:34:49.366Z,5.42
2019-01-29T04:37:18.178Z,4.33
2019-01-29T04:39:47.264Z,5.70
2019-01-29T04:42:16.187Z,5.05
2019-01-29T04:44:44.943Z,9.78
2019-01-29T04:47:17.086Z,8.95
2019-01-29T04:49:46.320Z,9.40
2019-01-29T04:52:14.861Z,8.10
2019-01-29T04:54:43.963Z,6.40
2019-01-29T04:57:13.001Z,4.60
2019-01-29T04:59:42.038Z,6.80
2019-01-29T05:02:11.058Z,5.80
2019-01-29T05:04:40.012Z,6.72
2019-01-29T05:07:09.117Z,5.28
2019-01-29T05:09:38.066Z,9.95
2019-01-29T05:12:07.365Z,6.20
2019-01-29T05:14:37.288Z,7.08
2019-01-29T05:17:06.479Z,5.25
2019-01-29T05:19:35.696Z,8.00
2019-01-29T05:22:09.807Z,5.60
2019-01-29T05:24:38.718Z,11.30
2019-01-29T05:27:10.704Z,13.80
2019-01-29T05:29:39.973Z,5.75
2019-01-29T05:32:09.174Z,6.83
2019-01-29T05:34:38.487Z,9.45
2019-01-29T05:37:07.299Z,8.13
2019-01-29T05:39:36.554Z,4.20
2019-01-29T05:42:05.565Z,7.00
2019-01-29T05:44:34.887Z,5.65
2019-01-29T05:47:03.785Z,6.20
2019-01-29T05:49:32.585Z,9.43
2019-01-29T05:52:01.673Z,6.08
2019-01-29T05:54:31.687Z,8.30
2019-01-29T05:57:00.740Z,4.87
2019-01-29T05:59:30.245Z,9.23
2019-01-29T06:01:59.200Z,6.22
2019-01-29T06:04:28.087Z,3.80
2019-01-29T06:06:56.949Z,7.75
2019-01-29T06:09:25.870Z,5.80
2019-01-29T06:11:54.671Z,4.85
2019-01-29T06:14:23.470Z,4.85
2019-01-29T06:16:52.422Z,5.10
2019-01-29T06:19:21.164Z,3.95
2019-01-29T06:21:49.615Z,9.03
2019-01-29T06:24:25.614Z,6.90
2019-01-29T06:26:49.130Z,6.97
2019-01-29T06:29:17.948Z,6.17
2019-01-29T06:31:47.048Z,10.78
2019-01-29T06:34:16.069Z,4.95
2019-01-29T06:36:45.460Z,6.00
2019-01-29T06:39:14.422Z,6.80
2019-01-29T06:41:43.384Z,7.15
2019-01-29T06:44:12.244Z,5.03
2019-01-29T06:46:41.376Z,5.28
2019-01-29T06:49:10.588Z,7.70
2019-01-29T06:51:39.671Z,8.40
2019-01-29T06:54:08.621Z,11.78
2019-01-29T06:56:37.745Z,16.45
2019-01-29T06:59:06.644Z,10.00
2019-01-29T07:01:35.722Z,5.83
2019-01-29T07:04:04.519Z,7.47
2019-01-29T07:06:32.990Z,9.08
2019-01-29T07:09:01.959Z,5.03
2019-01-29T07:11:30.841Z,7.83
2019-01-29T07:13:59.637Z,7.12
2019-01-29T07:16:50.669Z,15.03
2019-01-29T07:19:40.694Z,11.05
2019-01-29T07:22:09.555Z,5.85
2019-01-29T07:24:42.887Z,10.13
2019-01-29T07:27:08.887Z,6.70
2019-01-29T07:29:37.436Z,7.42
2019-01-29T07:32:06.650Z,6.80
2019-01-29T07:34:35.924Z,9.10
2019-01-29T07:37:04.721Z,11.55
2019-01-29T07:39:33.498Z,13.32
2019-01-29T07:42:02.728Z,9.58
2019-01-29T07:44:31.789Z,6.87
2019-01-29T07:47:00.752Z,8.30
2019-01-29T07:49:31.160Z,5.70
2019-01-29T07:51:59.805Z,9.63
2019-01-29T07:54:33.391Z,6.87
2019-01-29T07:56:59.731Z,6.03
2019-01-29T07:59:33.071Z,13.05
2019-01-29T08:01:59.892Z,4.67
2019-01-29T08:04:28.663Z,7.97
2019-01-29T08:06:57.561Z,10.93
2019-01-29T08:09:26.647Z,4.80
2019-01-29T08:11:55.242Z,3.72
2019-01-29T08:14:24.160Z,3.98
2019-01-29T08:16:53.160Z,7.62
2019-01-29T08:19:22.134Z,8.43
2019-01-29T08:21:51.000Z,6.55
2019-01-29T08:24:20.108Z,8.43
2019-01-29T08:26:49.085Z,5.50
2019-01-29T08:29:18.063Z,8.78
2019-01-29T08:31:47.041Z,3.77
2019-01-29T08:34:16.055Z,6.30
2019-01-29T08:36:45.479Z,9.03
2019-01-29T08:39:14.522Z,4.92
2019-01-29T08:41:43.555Z,10.50
2019-01-29T08:44:12.502Z,7.42
2019-01-29T08:46:41.364Z,7.28
2019-01-29T08:49:10.435Z,11.95
2019-01-29T08:51:39.264Z,6.97
2019-01-29T08:54:08.073Z,9.23
2019-01-29T08:56:37.073Z,9.88
2019-01-29T08:59:05.479Z,4.22
2019-01-29T09:01:34.322Z,6.63
2019-01-29T09:04:03.247Z,9.70
2019-01-29T09:06:32.906Z,6.62
2019-01-29T09:09:02.110Z,7.83
2019-01-29T09:11:31.106Z,6.78
2019-01-29T09:14:00.428Z,8.38
2019-01-29T09:16:29.810Z,3.90
2019-01-29T09:18:58.710Z,4.85
2019-01-29T09:21:27.138Z,2.73
2019-01-29T09:23:55.983Z,6.70
2019-01-29T09:26:24.881Z,4.55
2019-01-29T09:28:53.924Z,3.67
2019-01-29T09:31:23.055Z,6.75
2019-01-29T09:33:51.963Z,5.73
2019-01-29T09:36:20.761Z,6.08
2019-01-29T09:38:49.616Z,7.60
2019-01-29T09:41:18.048Z,4.55
2019-01-29T09:43:47.116Z,4.47
2019-01-29T09:46:16.049Z,5.57
2019-01-29T09:48:44.852Z,2.72
2019-01-29T09:51:13.825Z,3.95
2019-01-29T09:53:42.614Z,3.70
2019-01-29T09:56:11.646Z,4.40
2019-01-29T09:58:40.682Z,3.00
2019-01-29T10:01:09.548Z,2.23
2019-01-29T10:03:37.984Z,2.40
2019-01-29T10:06:06.997Z,2.20
2019-01-29T10:08:35.960Z,11.50
2019-01-29T10:11:04.937Z,9.58
2019-01-29T10:13:33.716Z,4.57
2019-01-29T10:16:02.834Z,2.20
2019-01-29T10:18:31.662Z,4.50
2019-01-29T10:21:00.479Z,3.20
2019-01-29T10:23:29.373Z,3.67
2019-01-29T10:25:57.765Z,2.37
2019-01-29T10:28:26.706Z,2.70
2019-01-29T10:30:55.793Z,3.90
2019-01-29T10:33:24.810Z,3.37
2019-01-29T10:35:53.787Z,3.17
2019-01-29T10:38:22.617Z,13.80
2019-01-29T10:40:51.629Z,3.00
2019-01-29T10:43:20.615Z,7.23
2019-01-29T10:45:49.069Z,5.23
2019-01-29T10:48:17.954Z,2.30
2019-01-29T10:50:46.992Z,5.37
2019-01-29T10:53:15.858Z,5.00
2019-01-29T10:55:47.338Z,5.37
2019-01-29T10:58:34.707Z,4.90
2019-01-29T11:01:03.995Z,4.10
2019-01-29T11:03:33.053Z,3.73
2019-01-29T11:06:01.941Z,5.37
2019-01-29T11:08:30.517Z,3.30
2019-01-29T11:10:59.479Z,3.97
2019-01-29T11:13:28.458Z,2.17
2019-01-29T11:15:57.529Z,3.70
2019-01-29T11:18:26.676Z,4.10
2019-01-29T11:20:55.495Z,3.67
2019-01-29T11:23:24.565Z,1.90
2019-01-29T11:25:56.024Z,2.27
2019-01-29T11:28:23.874Z,5.23
2019-01-29T11:30:53.277Z,9.63
2019-01-29T11:33:22.163Z,4.30
2019-01-29T11:35:50.974Z,2.10
2019-01-29T11:38:19.741Z,5.13
2019-01-29T11:40:48.648Z,7.27
2019-01-29T11:43:17.499Z,3.60
2019-01-29T11:45:51.681Z,54.87
2019-01-29T11:48:20.484Z,20.40
2019-01-29T11:50:48.868Z,7.03
2019-01-29T11:53:17.243Z,6.83
2019-01-29T11:55:46.219Z,11.30
2019-01-29T11:58:15.157Z,2.50
2019-01-29T12:00:51.701Z,3.57
2019-01-29T12:03:20.539Z,1.30
2019-01-29T12:05:49.684Z,2.77
2019-01-29T12:08:18.456Z,3.33
2019-01-29T12:10:51.654Z,2.10
2019-01-29T12:13:20.517Z,1.90
2019-01-29T12:15:48.949Z,4.03
2019-01-29T12:18:17.699Z,1.97
2019-01-29T12:20:46.537Z,1.83
2019-01-29T12:23:15.481Z,2.30
2019-01-29T12:25:44.490Z,2.90
2019-01-29T12:28:13.295Z,1.83
2019-01-29T12:30:43.120Z,1.10
2019-01-29T12:33:12.169Z,5.80
2019-01-29T12:35:41.302Z,3.07
2019-01-29T12:38:09.852Z,3.70
2019-01-29T12:40:38.703Z,1.30
2019-01-29T12:43:07.518Z,2.97
2019-01-29T12:45:36.569Z,1.90
2019-01-29T12:48:05.329Z,1.33
2019-01-29T12:50:34.258Z,5.13
2019-01-29T12:53:08.297Z,2.33
2019-01-29T12:55:36.901Z,1.50
2019-01-29T12:58:06.112Z,2.63
2019-01-29T13:00:38.590Z,3.43
2019-01-29T13:03:08.132Z,2.00
2019-01-29T13:05:37.126Z,1.57
2019-01-29T13:08:06.000Z,2.43
2019-01-29T13:10:34.976Z,2.73
2019-01-29T13:13:04.298Z,1.60
2019-01-29T13:15:33.452Z,1.90
2019-01-29T13:18:02.080Z,1.50
2019-01-29T13:20:31.271Z,3.93
2019-01-29T13:23:00.735Z,1.40
2019-01-29T13:25:29.851Z,1.80
2019-01-29T13:27:59.125Z,5.83
2019-01-29T13:30:33.229Z,1.63
2019-01-29T13:33:02.272Z,1.50
2019-01-29T13:35:33.262Z,2.30
2019-01-29T13:38:02.255Z,1.57
2019-01-29T13:40:30.712Z,1.90
2019-01-29T13:42:59.484Z,3.33
2019-01-29T13:45:28.246Z,6.57
2019-01-29T13:47:57.217Z,5.13
2019-01-29T13:50:32.636Z,1.87
2019-01-29T13:53:01.727Z,9.77
2019-01-29T13:55:30.786Z,4.90
2019-01-29T13:57:59.593Z,2.20
2019-01-29T14:00:47.658Z,3.30
2019-01-29T14:03:18.611Z,1.63
2019-01-29T14:05:47.342Z,1.50
2019-01-29T14:08:16.219Z,1.60
2019-01-29T14:10:46.141Z,9.60
2019-01-29T14:13:15.378Z,4.40
2019-01-29T14:15:50.257Z,4.47
2019-01-29T14:18:20.725Z,3.90
2019-01-29T14:20:49.642Z,2.20
2019-01-29T14:23:18.572Z,1.40
2019-01-29T14:25:47.355Z,1.43
2019-01-29T14:28:16.232Z,3.37
2019-01-29T14:30:44.768Z,1.27
2019-01-29T14:33:13.861Z,1.30
2019-01-29T14:35:42.873Z,1.73
2019-01-29T14:38:50.395Z,2.17
2019-01-29T14:41:20.934Z,4.00
2019-01-29T14:43:57.786Z,5.03
2019-01-29T14:46:26.783Z,22.40
2019-01-29T14:48:55.627Z,37.97
2019-01-29T14:51:24.419Z,3.90
2019-01-29T14:53:53.215Z,3.63
2019-01-29T14:56:22.195Z,7.73
2019-01-29T14:58:50.589Z,27.47
2019-01-29T15:01:19.489Z,24.77
2019-01-29T15:03:48.374Z,28.17
2019-01-29T15:06:17.195Z,13.10
2019-01-29T15:08:46.126Z,22.97
2019-01-29T15:11:14.940Z,13.07
2019-01-29T15:13:43.839Z,8.37
2019-01-29T15:16:23.446Z,18.50
2019-01-29T15:18:56.652Z,5.80
2019-01-29T15:21:25.004Z,2.70
2019-01-29T15:23:53.803Z,3.43
2019-01-29T15:26:22.710Z,1.67
2019-01-29T15:28:51.635Z,1.83
2019-01-29T15:31:20.616Z,4.23
2019-01-29T15:33:49.573Z,1.90
2019-01-29T15:36:18.363Z,1.87
2019-01-29T15:38:47.326Z,13.37
2019-01-29T15:41:16.211Z,1.50
2019-01-29T15:43:44.566Z,3.53
2019-01-29T15:46:13.418Z,3.60
2019-01-29T15:48:42.254Z,3.17
2019-01-29T15:51:11.400Z,2.70
2019-01-29T15:53:40.396Z,3.40
2019-01-29T15:56:09.367Z,5.50
2019-01-29T15:58:38.317Z,4.20
2019-01-29T16:01:07.388Z,2.03
2019-01-29T16:03:35.740Z,3.00
2019-01-29T16:06:04.530Z,5.40
2019-01-29T16:08:33.331Z,9.83
2019-01-29T16:11:02.262Z,6.77
2019-01-29T16:13:31.200Z,4.20
2019-01-29T16:16:00.051Z,17.67
2019-01-29T16:18:28.782Z,4.25
2019-01-29T16:20:57.722Z,4.17
2019-01-29T16:23:26.697Z,2.13
2019-01-29T16:25:55.267Z,5.75
2019-01-29T16:28:24.238Z,6.42
2019-01-29T16:30:53.135Z,7.60
2019-01-29T16:33:22.114Z,12.13
2019-01-29T16:35:51.441Z,8.25
2019-01-29T16:38:20.471Z,7.72
2019-01-29T16:40:49.413Z,14.30
2019-01-29T16:43:18.478Z,10.55
2019-01-29T16:45:47.567Z,8.45
2019-01-29T16:48:17.368Z,17.37
2019-01-29T16:50:46.210Z,8.30
2019-01-29T16:53:14.989Z,7.33
2019-01-29T16:55:43.775Z,7.37
2019-01-29T16:58:13.012Z,6.00
2019-01-29T17:00:42.663Z,4.83
2019-01-29T17:03:11.852Z,4.97
2019-01-29T17:05:40.949Z,6.90
2019-01-29T17:08:09.560Z,11.25
2019-01-29T17:10:38.604Z,9.65
2019-01-29T17:13:07.627Z,15.63
2019-01-29T17:15:36.579Z,13.50
2019-01-29T17:18:06.066Z,14.35
2019-01-29T17:20:36.876Z,21.40
2019-01-29T17:23:06.431Z,15.50
2019-01-29T17:25:35.457Z,13.28
2019-01-29T17:28:04.658Z,13.83
2019-01-29T17:30:34.611Z,16.37
2019-01-29T17:33:03.754Z,19.77
2019-01-29T17:35:33.072Z,7.22
2019-01-29T17:38:02.238Z,9.35
2019-01-29T17:40:31.322Z,9.73
2019-01-29T17:43:00.354Z,23.95
2019-01-29T17:45:31.997Z,16.35
2019-01-29T17:48:01.438Z,25.00
2019-01-29T17:50:32.327Z,11.97
2019-01-29T17:53:00.855Z,11.97
2019-01-29T17:55:31.021Z,16.97
2019-01-29T17:58:00.220Z,15.98
2019-01-29T18:00:31.610Z,14.00
2019-01-29T18:03:00.469Z,5.92
2019-01-29T18:05:29.473Z,12.15
2019-01-29T18:07:58.311Z,11.40
2019-01-29T18:10:28.318Z,6.37
2019-01-29T18:12:57.379Z,8.78
2019-01-29T18:15:26.531Z,7.58
2019-01-29T18:17:55.635Z,8.70
2019-01-29T18:20:24.778Z,13.53
2019-01-29T18:22:53.673Z,9.98
2019-01-29T18:25:22.544Z,11.88
2019-01-29T18:28:00.920Z,8.98
2019-01-29T18:30:25.671Z,7.35
2019-01-29T18:32:54.553Z,25.62
2019-01-29T18:35:23.485Z,4.20
2019-01-29T18:37:52.736Z,3.87
2019-01-29T18:40:28.178Z,4.62
2019-01-29T18:43:00.190Z,8.53
2019-01-29T18:45:29.101Z,5.33
2019-01-29T18:47:58.100Z,5.10
2019-01-29T18:50:27.085Z,9.00
2019-01-29T18:52:56.239Z,11.65
2019-01-29T18:55:25.207Z,7.50
2019-01-29T18:57:53.701Z,5.72
2019-01-29T19:00:23.460Z,12.15
2019-01-29T19:02:52.700Z,11.45
2019-01-29T19:05:23.022Z,13.60
2019-01-29T19:07:51.847Z,7.28
2019-01-29T19:10:22.395Z,18.12
2019-01-29T19:12:51.481Z,10.35
2019-01-29T19:15:25.246Z,9.98
2019-01-29T19:17:55.680Z,10.80
2019-01-29T19:20:25.112Z,11.38
2019-01-29T19:22:53.545Z,6.37
2019-01-29T19:25:22.448Z,17.32
2019-01-29T19:27:51.295Z,10.55
2019-01-29T19:30:30.640Z,10.98
2019-01-29T19:32:59.795Z,12.73
2019-01-29T19:35:28.906Z,18.98
2019-01-29T19:37:57.813Z,15.93
2019-01-29T19:40:26.400Z,9.70
2019-01-29T19:42:55.377Z,15.83
2019-01-29T19:45:26.548Z,12.68
2019-01-29T19:47:55.519Z,14.23
2019-01-29T19:50:25.597Z,16.05
2019-01-29T19:52:54.445Z,15.83
2019-01-29T19:55:24.809Z,16.62
2019-01-29T19:57:53.726Z,14.60
2019-01-29T20:00:25.076Z,19.85
2019-01-29T20:02:54.072Z,27.70
2019-01-29T20:05:23.146Z,15.03
2019-01-29T20:07:52.090Z,10.20
2019-01-29T20:10:21.016Z,13.00
2019-01-29T20:12:49.866Z,18.32
2019-01-29T20:15:19.487Z,20.25
2019-01-29T20:17:49.977Z,15.80
2019-01-29T20:20:21.710Z,14.28
2019-01-29T20:22:50.624Z,17.30
2019-01-29T20:25:19.868Z,14.43
2019-01-29T20:27:48.742Z,22.85
2019-01-29T20:30:23.327Z,11.85
2019-01-29T20:32:53.430Z,15.00
2019-01-29T20:35:23.401Z,19.05
2019-01-29T20:37:52.439Z,19.65
2019-01-29T20:40:22.462Z,19.35
2019-01-29T20:42:51.347Z,12.20
2019-01-29T20:45:22.506Z,9.55
2019-01-29T20:47:52.733Z,10.20
2019-01-29T20:50:27.258Z,14.98
2019-01-29T20:52:56.249Z,20.55
2019-01-29T20:55:24.799Z,13.50
2019-01-29T20:57:53.892Z,15.28
2019-01-29T21:00:26.853Z,39.18
2019-01-29T21:02:55.971Z,55.95
2019-01-29T21:05:25.330Z,24.60
2019-01-29T21:07:54.582Z,28.90
2019-01-29T21:10:24.261Z,13.95
2019-01-29T21:12:58.152Z,15.35
2019-01-29T21:15:37.673Z,17.40
2019-01-29T21:17:57.899Z,19.10
2019-01-29T21:20:29.418Z,17.00
2019-01-29T21:22:58.587Z,22.98
2019-01-29T21:25:27.573Z,23.32
2019-01-29T21:27:56.775Z,17.82
2019-01-29T21:30:30.724Z,38.95
2019-01-29T21:32:59.726Z,46.02
2019-01-29T21:35:32.904Z,26.10
2019-01-29T21:38:02.746Z,21.57
2019-01-29T21:40:43.285Z,14.15
2019-01-29T21:43:12.024Z,21.05
2019-01-29T21:45:40.961Z,22.85
2019-01-29T21:48:10.114Z,20.45
2019-01-29T21:50:42.442Z,19.75
2019-01-29T21:53:26.549Z,25.08
2019-01-29T21:55:56.013Z,17.82
2019-01-29T21:58:27.836Z,42.88
2019-01-29T22:00:57.561Z,31.40
2019-01-29T22:03:29.081Z,77.20
2019-01-29T22:05:57.771Z,27.80
2019-01-29T22:08:26.653Z,35.52
2019-01-29T22:10:55.790Z,36.08
2019-01-29T22:13:24.670Z,42.93
2019-01-29T22:15:53.568Z,35.45
2019-01-29T22:18:23.124Z,24.02
2019-01-29T22:20:52.077Z,26.35
2019-01-29T22:23:20.956Z,15.75
2019-01-29T22:25:49.995Z,21.10
2019-01-29T22:28:18.989Z,165.37
2019-01-29T22:30:47.684Z,182.75
2019-01-29T22:33:16.668Z,217.72
2019-01-29T22:35:45.449Z,196.20
2019-01-29T22:38:14.340Z,166.00
2019-01-29T22:40:42.849Z,142.47
2019-01-29T22:43:11.552Z,136.07
2019-01-29T22:45:40.300Z,91.65
2019-01-29T22:48:09.821Z,62.53
2019-01-29T22:50:40.468Z,88.05
2019-01-29T22:53:09.243Z,73.50
2019-01-29T22:55:38.170Z,54.60
2019-01-29T22:58:06.940Z,37.38
2019-01-29T23:01:01.696Z,22.70
2019-01-29T23:03:33.503Z,41.40
2019-01-29T23:06:17.215Z,28.83
2019-01-29T23:08:46.115Z,29.55
2019-01-29T23:11:15.074Z,30.23
2019-01-29T23:13:44.177Z,22.93
2019-01-29T23:16:12.945Z,19.00
2019-01-29T23:18:41.449Z,16.12
2019-01-29T23:21:10.141Z,12.73
2019-01-29T23:23:39.020Z,14.95
2019-01-29T23:26:08.282Z,12.43
2019-01-29T23:28:36.957Z,12.95
2019-01-29T23:31:05.678Z,5.58
2019-01-29T23:33:34.482Z,10.08
2019-01-29T23:36:03.384Z,9.35
2019-01-29T23:38:31.763Z,4.42
2019-01-29T23:41:00.425Z,2.92
2019-01-29T23:43:35.997Z,8.18
2019-01-29T23:46:04.906Z,3.40
2019-01-29T23:48:33.807Z,3.45
2019-01-29T23:51:02.514Z,18.17
2019-01-29T23:53:31.552Z,5.78
2019-01-29T23:56:00.537Z,3.85
2019-01-29T23:58:29.799Z,5.87
